Enter the Airport ICAO Code

Search by Airport or City

Current Weather

SKCL | Alfonso Bonilla Aragón International Airport

Cali, Colombia

Last Update 44 Minutes Ago

Rain Shower

Temperature of 25 ºC

Light Winds from East

Temperature

25 ºC

Dew Point Temperature

19 ºC

Relative Humidity

69.51 %

Wind Direction

East (110º, Without Significant Variations)

Wind Velocity

6 km/h (03 kt)

Gusts

None

Visibility

Greater than 10 Kilometers

Sea Level Pressure

1015 hPa (Hectopascals)

Layers of Clouds

5% to 30% of Sky Covered from 762 mts (2500 ft) Above Ground Level.

60% to 90% of Sky Covered from 3048 mts (10000 ft) Above Ground Level.

METAR SKCL 202300Z 11003KT 9999 VCSH FEW025 BKN100 25/19 Q1015 NOSIG RMK VCSH/SE A2998

Weather Forecast

SKCL | Alfonso Bonilla Aragón International Airport

Cali, Colombia

Forecast valid for the next 24 Hours

From now on it is expected:

Partly Cloudy Sky

Light to Moderate Winds from NorthEast

In 3 hours it is expected the begining of 4 hours with intermittent periods of:

Drizzle

In 11 hours it is expected the begining of 4 hours with intermittent periods of:

Mist

In 19 hours it is expected the begining of 4 hours with intermittent periods of:

Thunderstorm with Rain

Moderate Winds from North

Maximum Temperature

No Data

Minimum Temperature

No Data

TAF SKCL 202230Z 2100/2124 04005KT 9999 SCT020 TEMPO 2103/2107 DZ TEMPO 2111/2115 5000 BR SCT012 TEMPO 2119/2123 34012KT TSRA SCT017CB BKN100 TX29/2119Z TN19/2110Z